createdAt,value
2022-08-30T00:01:07.160Z,1.93
2022-08-30T00:03:41.920Z,1.80
2022-08-30T00:06:15.542Z,2.13
2022-08-30T00:08:47.517Z,1.80
2022-08-30T00:11:20.329Z,2.13
2022-08-30T00:13:52.543Z,2.13
2022-08-30T00:16:24.955Z,1.83
2022-08-30T00:18:56.269Z,1.73
2022-08-30T00:21:29.513Z,1.90
2022-08-30T00:24:00.245Z,1.93
2022-08-30T00:26:31.001Z,1.83
2022-08-30T00:29:01.823Z,2.03
2022-08-30T00:31:32.677Z,1.93
2022-08-30T00:34:03.417Z,1.93
2022-08-30T00:36:35.772Z,1.80
2022-08-30T00:39:08.628Z,1.90
2022-08-30T00:41:39.769Z,1.70
2022-08-30T00:44:10.961Z,1.70
2022-08-30T00:46:41.803Z,1.60
2022-08-30T00:49:15.483Z,2.23
2022-08-30T00:51:48.517Z,1.53
2022-08-30T00:54:19.646Z,1.93
2022-08-30T00:56:51.424Z,2.23
2022-08-30T00:59:25.061Z,1.60
2022-08-30T01:01:56.106Z,1.90
2022-08-30T01:04:28.370Z,2.00
2022-08-30T01:07:01.216Z,2.13
2022-08-30T01:09:32.284Z,2.10
2022-08-30T01:12:03.175Z,1.80
2022-08-30T01:14:35.230Z,1.73
2022-08-30T01:17:07.105Z,2.73
2022-08-30T01:19:43.635Z,2.23
2022-08-30T01:22:26.331Z,2.17
2022-08-30T01:25:01.018Z,2.13
2022-08-30T01:27:33.538Z,2.20
2022-08-30T01:30:05.519Z,2.20
2022-08-30T01:32:42.435Z,2.57
2022-08-30T01:35:14.162Z,2.40
2022-08-30T01:37:45.908Z,2.70
2022-08-30T01:40:19.866Z,1.83
2022-08-30T01:42:50.972Z,1.70
2022-08-30T01:45:21.862Z,1.80
2022-08-30T01:47:52.571Z,2.03
2022-08-30T01:50:23.415Z,2.03
2022-08-30T01:52:54.156Z,2.03
2022-08-30T01:55:26.767Z,2.00
2022-08-30T01:57:57.495Z,1.90
2022-08-30T02:00:28.319Z,2.30
2022-08-30T02:02:59.659Z,2.80
2022-08-30T02:05:30.688Z,8.30
2022-08-30T02:08:01.643Z,7.37
2022-08-30T02:10:34.241Z,7.87
2022-08-30T02:13:05.305Z,2.83
2022-08-30T02:15:41.604Z,3.27
2022-08-30T02:18:13.087Z,4.07
2022-08-30T02:20:43.923Z,6.50
2022-08-30T02:23:14.679Z,3.10
2022-08-30T02:25:48.118Z,2.70
2022-08-30T02:28:20.588Z,3.17
2022-08-30T02:30:51.823Z,2.23
2022-08-30T02:33:23.023Z,2.67
2022-08-30T02:35:53.731Z,2.77
2022-08-30T02:38:24.595Z,2.60
2022-08-30T02:40:56.932Z,2.50
2022-08-30T02:43:27.885Z,2.47
2022-08-30T02:45:59.376Z,3.03
2022-08-30T02:48:30.349Z,2.87
2022-08-30T02:51:09.637Z,2.57
2022-08-30T02:53:42.922Z,2.63
2022-08-30T02:56:16.880Z,2.43
2022-08-30T02:58:49.081Z,2.80
2022-08-30T03:01:20.574Z,2.63
2022-08-30T03:03:51.669Z,2.40
2022-08-30T03:06:22.416Z,2.70
2022-08-30T03:08:53.136Z,2.80
2022-08-30T03:11:25.500Z,2.00
2022-08-30T03:13:56.316Z,2.20
2022-08-30T03:16:27.082Z,2.67
2022-08-30T03:18:58.013Z,2.50
2022-08-30T03:21:28.752Z,2.77
2022-08-30T03:23:59.467Z,1.70
2022-08-30T03:26:31.875Z,2.33
2022-08-30T03:29:02.987Z,2.47
2022-08-30T03:31:37.743Z,2.03
2022-08-30T03:34:12.123Z,2.43
2022-08-30T03:36:42.955Z,2.40
2022-08-30T03:39:14.052Z,2.73
2022-08-30T03:41:46.622Z,2.10
2022-08-30T03:44:18.384Z,2.57
2022-08-30T03:46:49.296Z,2.10
2022-08-30T03:49:20.093Z,1.87
2022-08-30T03:51:50.856Z,2.30
2022-08-30T03:54:23.429Z,2.20
2022-08-30T03:56:56.988Z,2.10
2022-08-30T03:59:27.999Z,1.77
2022-08-30T04:01:59.988Z,1.60
2022-08-30T04:04:30.820Z,1.93
2022-08-30T04:07:01.534Z,1.83
2022-08-30T04:09:32.322Z,1.83
2022-08-30T04:12:04.792Z,1.60
2022-08-30T04:14:35.549Z,1.60
2022-08-30T04:17:06.418Z,1.83
2022-08-30T04:19:37.127Z,1.83
2022-08-30T04:22:08.329Z,1.80
2022-08-30T04:24:39.221Z,1.50
2022-08-30T04:27:12.152Z,1.67
2022-08-30T04:29:43.076Z,1.47
2022-08-30T04:32:13.805Z,1.20
2022-08-30T04:34:44.610Z,1.83
2022-08-30T04:37:15.851Z,1.53
2022-08-30T04:39:47.384Z,1.37
2022-08-30T04:42:19.884Z,1.60
2022-08-30T04:44:51.754Z,1.53
2022-08-30T04:47:22.471Z,1.57
2022-08-30T04:49:53.196Z,1.47
2022-08-30T04:52:24.217Z,1.47
2022-08-30T04:54:58.025Z,1.63
2022-08-30T04:57:31.433Z,1.70
2022-08-30T05:00:02.175Z,1.30
2022-08-30T05:02:33.146Z,1.50
2022-08-30T05:05:22.133Z,1.50
2022-08-30T05:07:53.030Z,1.60
2022-08-30T05:10:24.111Z,1.40
2022-08-30T05:12:56.619Z,1.53
2022-08-30T05:15:27.560Z,1.80
2022-08-30T05:17:58.283Z,1.80
2022-08-30T05:20:29.312Z,1.53
2022-08-30T05:23:00.055Z,1.60
2022-08-30T05:25:32.831Z,1.80
2022-08-30T05:28:05.407Z,1.60
2022-08-30T05:30:36.964Z,1.30
2022-08-30T05:33:07.908Z,1.50
2022-08-30T05:35:38.664Z,1.30
2022-08-30T05:38:09.483Z,1.60
2022-08-30T05:40:44.242Z,1.90
2022-08-30T05:43:16.824Z,1.70
2022-08-30T05:45:47.503Z,1.63
2022-08-30T05:48:19.200Z,1.63
2022-08-30T05:50:49.936Z,2.07
2022-08-30T05:53:20.653Z,1.50
2022-08-30T05:55:51.365Z,1.67
2022-08-30T05:58:23.711Z,1.80
2022-08-30T06:00:54.443Z,1.70
2022-08-30T06:03:25.273Z,1.50
2022-08-30T06:05:58.133Z,1.73
2022-08-30T06:08:28.840Z,1.63
2022-08-30T06:10:59.543Z,1.50
2022-08-30T06:13:33.148Z,1.67
2022-08-30T06:16:05.221Z,1.43
2022-08-30T06:18:36.002Z,1.50
2022-08-30T06:21:09.526Z,1.43
2022-08-30T06:23:42.974Z,1.50
2022-08-30T06:26:13.927Z,1.67
2022-08-30T06:28:46.514Z,1.67
2022-08-30T06:31:19.704Z,1.50
2022-08-30T06:33:51.036Z,1.60
2022-08-30T06:36:23.977Z,1.50
2022-08-30T06:38:55.986Z,1.60
2022-08-30T06:41:29.024Z,1.53
2022-08-30T06:44:03.317Z,2.00
2022-08-30T06:46:35.891Z,1.50
2022-08-30T06:49:08.492Z,1.77
2022-08-30T06:51:42.066Z,1.47
2022-08-30T06:54:15.219Z,1.50
2022-08-30T06:56:58.123Z,1.67
2022-08-30T06:59:32.347Z,1.53
2022-08-30T07:02:03.291Z,1.90
2022-08-30T07:04:34.063Z,1.80
2022-08-30T07:07:04.783Z,2.07
2022-08-30T07:09:36.246Z,1.63
2022-08-30T07:12:07.576Z,1.63
2022-08-30T07:14:40.615Z,1.53
2022-08-30T07:17:25.388Z,1.57
2022-08-30T07:19:56.151Z,1.80
2022-08-30T07:22:26.934Z,1.40
2022-08-30T07:24:57.709Z,2.20
2022-08-30T07:27:28.438Z,2.20
2022-08-30T07:30:01.903Z,1.93
2022-08-30T07:32:35.054Z,2.00
2022-08-30T07:35:05.824Z,1.70
2022-08-30T07:37:36.590Z,1.60
2022-08-30T07:40:08.042Z,1.97
2022-08-30T07:42:38.775Z,1.80
2022-08-30T07:45:12.234Z,1.80
2022-08-30T07:47:44.001Z,1.97
2022-08-30T07:50:15.182Z,2.07
2022-08-30T07:52:45.925Z,2.03
2022-08-30T07:55:16.825Z,1.70
2022-08-30T07:57:47.540Z,2.03
2022-08-30T08:00:20.473Z,2.10
2022-08-30T08:02:51.265Z,1.80
2022-08-30T08:05:24.810Z,1.50
2022-08-30T08:07:55.776Z,1.60
2022-08-30T08:10:26.459Z,1.97
2022-08-30T08:12:57.196Z,1.90
2022-08-30T08:15:30.262Z,1.80
2022-08-30T08:18:01.732Z,1.90
2022-08-30T08:20:32.721Z,2.00
2022-08-30T08:23:03.542Z,1.60
2022-08-30T08:25:34.341Z,1.90
2022-08-30T08:28:05.195Z,1.73
2022-08-30T08:30:39.835Z,1.73
2022-08-30T08:33:11.442Z,2.37
2022-08-30T08:35:42.233Z,2.10
2022-08-30T08:38:13.087Z,1.70
2022-08-30T08:40:51.655Z,1.60
2022-08-30T08:43:25.835Z,2.00
2022-08-30T08:46:03.765Z,2.10
2022-08-30T08:48:58.449Z,1.80
2022-08-30T08:51:51.331Z,1.77
2022-08-30T08:54:28.377Z,2.37
2022-08-30T08:56:59.144Z,1.80
2022-08-30T08:59:30.008Z,1.97
2022-08-30T09:02:05.296Z,1.53
2022-08-30T09:04:40.493Z,1.93
2022-08-30T09:07:21.865Z,2.30
2022-08-30T09:09:52.808Z,1.63
2022-08-30T09:12:23.950Z,1.63
2022-08-30T09:14:57.336Z,1.60
2022-08-30T09:17:31.645Z,2.03
2022-08-30T09:20:03.375Z,1.80
2022-08-30T09:22:38.759Z,2.73
2022-08-30T09:25:13.025Z,1.87
2022-08-30T09:27:46.166Z,1.73
2022-08-30T09:30:20.297Z,2.00
2022-08-30T09:32:57.491Z,1.93
2022-08-30T09:35:35.908Z,1.80
2022-08-30T09:38:09.805Z,1.63
2022-08-30T09:40:42.716Z,2.07
2022-08-30T09:43:22.805Z,1.87
2022-08-30T09:46:11.307Z,2.00
2022-08-30T09:48:49.348Z,2.00
2022-08-30T09:51:46.319Z,1.93
2022-08-30T09:54:24.862Z,1.93
2022-08-30T09:57:11.612Z,1.87
2022-08-30T09:59:51.464Z,1.80
2022-08-30T10:02:43.889Z,1.77
2022-08-30T10:05:23.848Z,1.70
2022-08-30T10:08:02.700Z,1.70
2022-08-30T10:10:40.081Z,1.63
2022-08-30T10:13:35.480Z,1.77
2022-08-30T10:16:16.746Z,1.97
2022-08-30T10:18:57.153Z,1.77
2022-08-30T10:21:40.881Z,2.17
2022-08-30T10:24:21.075Z,1.70
2022-08-30T10:26:55.879Z,1.80
2022-08-30T10:29:32.312Z,1.93
2022-08-30T10:32:05.696Z,1.73
2022-08-30T10:34:42.309Z,1.93
2022-08-30T10:37:19.531Z,1.47
2022-08-30T10:39:53.461Z,1.77
2022-08-30T10:42:31.407Z,1.60
2022-08-30T10:45:08.024Z,2.00
2022-08-30T10:47:43.586Z,2.40
2022-08-30T10:50:20.614Z,1.70
2022-08-30T10:52:58.941Z,1.90
2022-08-30T10:55:31.479Z,1.80
2022-08-30T10:58:04.040Z,1.80
2022-08-30T11:00:44.823Z,2.10
2022-08-30T11:04:01.421Z,2.33
2022-08-30T11:06:38.864Z,2.20
2022-08-30T11:09:46.497Z,1.77
2022-08-30T11:12:31.512Z,1.73
2022-08-30T11:15:13.787Z,2.10
2022-08-30T11:17:56.511Z,1.90
2022-08-30T11:20:37.824Z,2.13
2022-08-30T11:23:32.671Z,2.17
2022-08-30T11:26:08.337Z,2.37
2022-08-30T11:29:08.146Z,2.07
2022-08-30T11:31:45.210Z,2.30
2022-08-30T11:34:57.500Z,2.17
2022-08-30T11:37:38.243Z,2.20
2022-08-30T11:40:50.239Z,1.77
2022-08-30T11:43:58.299Z,2.47
2022-08-30T11:46:41.155Z,1.80
2022-08-30T11:49:35.988Z,2.00
2022-08-30T11:52:38.430Z,2.93
2022-08-30T11:55:27.914Z,2.03
2022-08-30T11:58:11.719Z,1.97
2022-08-30T12:00:52.552Z,2.17
2022-08-30T12:03:35.782Z,2.40
2022-08-30T12:06:07.543Z,2.10
2022-08-30T12:09:02.529Z,1.93
2022-08-30T12:12:07.426Z,2.20
2022-08-30T12:14:52.477Z,2.30
2022-08-30T12:17:44.896Z,2.20
2022-08-30T12:20:25.060Z,1.73
2022-08-30T12:22:57.257Z,2.07
2022-08-30T12:25:35.485Z,2.27
2022-08-30T12:28:14.836Z,2.47
2022-08-30T12:30:46.860Z,2.37
2022-08-30T12:33:39.535Z,2.23
2022-08-30T12:36:16.883Z,2.03
2022-08-30T12:38:49.451Z,2.13
2022-08-30T12:41:24.187Z,2.50
2022-08-30T12:43:55.298Z,2.60
2022-08-30T12:46:26.186Z,2.13
2022-08-30T12:48:58.735Z,1.93
2022-08-30T12:51:39.531Z,2.10
2022-08-30T12:54:22.318Z,2.20
2022-08-30T12:57:19.104Z,2.33
2022-08-30T12:59:59.640Z,2.27
2022-08-30T13:02:46.893Z,2.20
2022-08-30T13:05:48.269Z,1.90
2022-08-30T13:08:22.469Z,2.33
2022-08-30T13:11:04.419Z,2.20
2022-08-30T13:13:44.443Z,2.40
2022-08-30T13:16:26.414Z,3.07
2022-08-30T13:19:26.006Z,2.53
2022-08-30T13:21:59.873Z,1.83
2022-08-30T13:24:31.401Z,2.40
2022-08-30T13:27:12.146Z,2.33
2022-08-30T13:29:44.022Z,1.97
2022-08-30T13:32:15.542Z,2.47
2022-08-30T13:34:46.864Z,2.10
2022-08-30T13:40:16.522Z,2.20
2022-08-30T13:42:47.842Z,2.60
2022-08-30T13:48:12.185Z,2.67
2022-08-30T13:50:43.797Z,2.50
2022-08-30T13:53:51.159Z,2.60
2022-08-30T13:56:08.520Z,2.80
2022-08-30T13:58:44.993Z,2.47
2022-08-30T14:01:17.244Z,2.37
2022-08-30T14:07:13.583Z,2.40
2022-08-30T14:09:31.497Z,2.30
2022-08-30T14:12:02.412Z,2.43
2022-08-30T14:14:42.825Z,2.77
2022-08-30T14:17:14.164Z,2.43
2022-08-30T14:19:44.937Z,2.23
2022-08-30T14:22:15.664Z,2.37
2022-08-30T14:24:50.242Z,1.70
2022-08-30T14:27:20.949Z,2.53
2022-08-30T14:29:53.151Z,2.47
2022-08-30T14:32:24.568Z,2.73
2022-08-30T14:34:55.308Z,3.00
2022-08-30T14:37:26.054Z,2.60
2022-08-30T14:39:58.493Z,2.70
2022-08-30T14:42:29.298Z,2.87
2022-08-30T14:45:00.018Z,2.50
2022-08-30T14:47:31.662Z,2.70
2022-08-30T14:50:02.721Z,2.40
2022-08-30T14:52:34.712Z,2.37
2022-08-30T14:55:09.701Z,2.40
2022-08-30T14:57:41.281Z,2.80
2022-08-30T15:00:15.250Z,3.40
2022-08-30T15:02:45.959Z,2.63
2022-08-30T15:05:16.809Z,2.90
2022-08-30T15:07:51.168Z,2.53
2022-08-30T15:10:24.141Z,2.80
2022-08-30T15:12:55.629Z,3.10
2022-08-30T15:15:26.864Z,2.60
2022-08-30T15:17:57.598Z,2.70
2022-08-30T15:20:28.653Z,2.70
2022-08-30T15:22:59.961Z,2.70
2022-08-30T15:25:32.396Z,3.33
2022-08-30T15:28:03.913Z,2.73
2022-08-30T15:30:34.634Z,2.30
2022-08-30T15:33:05.827Z,2.93
2022-08-30T15:35:37.219Z,2.50
2022-08-30T15:38:07.956Z,2.93
2022-08-30T15:40:45.358Z,2.43
2022-08-30T15:43:16.809Z,2.90
2022-08-30T15:45:47.967Z,2.63
2022-08-30T15:48:18.724Z,2.37
2022-08-30T15:50:49.508Z,2.77
2022-08-30T15:53:22.429Z,3.10
2022-08-30T15:55:54.814Z,2.90
2022-08-30T15:58:25.529Z,2.70
2022-08-30T16:00:57.156Z,2.93
2022-08-30T16:03:28.821Z,2.83
2022-08-30T16:05:59.683Z,2.40
2022-08-30T16:08:32.501Z,2.63
2022-08-30T16:11:07.808Z,2.57
2022-08-30T16:13:38.603Z,2.40
2022-08-30T16:16:11.087Z,2.10
2022-08-30T16:18:42.385Z,2.30
2022-08-30T16:21:16.704Z,2.40
2022-08-30T16:23:48.304Z,2.10
2022-08-30T16:26:21.048Z,2.47
2022-08-30T16:28:53.316Z,2.13
2022-08-30T16:31:25.972Z,2.30
2022-08-30T16:34:02.391Z,2.13
2022-08-30T16:36:36.606Z,1.93
2022-08-30T16:39:10.164Z,2.47
2022-08-30T16:41:44.738Z,2.10
2022-08-30T16:44:16.005Z,2.00
2022-08-30T16:46:52.936Z,2.03
2022-08-30T16:49:25.778Z,2.10
2022-08-30T16:51:56.889Z,2.03
2022-08-30T16:54:27.660Z,2.30
2022-08-30T16:57:01.203Z,2.00
2022-08-30T16:59:31.952Z,2.20
2022-08-30T17:02:02.726Z,1.90
2022-08-30T17:04:34.207Z,2.17
2022-08-30T17:07:05.928Z,2.10
2022-08-30T17:09:37.440Z,2.30
2022-08-30T17:12:10.505Z,1.87
2022-08-30T17:14:41.363Z,2.00
2022-08-30T17:17:14.668Z,1.80
2022-08-30T17:19:47.104Z,2.70
2022-08-30T17:22:18.154Z,2.20
2022-08-30T17:24:53.100Z,2.40
2022-08-30T17:27:25.455Z,2.50
2022-08-30T17:29:56.252Z,1.80
2022-08-30T17:32:26.956Z,2.87
2022-08-30T17:34:57.952Z,2.00
2022-08-30T17:37:28.674Z,2.17
2022-08-30T17:40:01.024Z,2.67
2022-08-30T17:42:34.850Z,2.27
2022-08-30T17:45:07.467Z,2.10
2022-08-30T17:47:38.919Z,2.40
2022-08-30T17:50:11.344Z,2.10
2022-08-30T17:52:42.379Z,2.40
2022-08-30T17:55:13.915Z,2.43
2022-08-30T17:57:46.419Z,2.20
2022-08-30T18:00:21.881Z,2.47
2022-08-30T18:02:52.645Z,2.50
2022-08-30T18:05:24.433Z,2.37
2022-08-30T18:07:56.312Z,2.50
2022-08-30T18:10:32.506Z,2.13
2022-08-30T18:13:06.766Z,2.30
2022-08-30T18:15:43.974Z,2.40
2022-08-30T18:18:15.148Z,2.50
2022-08-30T18:20:46.199Z,2.77
2022-08-30T18:23:17.672Z,2.20
2022-08-30T18:25:56.847Z,2.37
2022-08-30T18:28:29.351Z,2.30
2022-08-30T18:31:00.467Z,2.70
2022-08-30T18:33:31.875Z,2.60
2022-08-30T18:36:02.584Z,2.43
2022-08-30T18:38:33.337Z,2.33
2022-08-30T18:41:05.824Z,2.77
2022-08-30T18:43:38.797Z,2.43
2022-08-30T18:46:13.202Z,2.23
2022-08-30T18:48:46.004Z,2.90
2022-08-30T18:51:18.976Z,2.73
2022-08-30T18:53:50.855Z,2.17
2022-08-30T18:56:21.589Z,2.80
2022-08-30T18:59:00.340Z,2.30
2022-08-30T19:01:33.335Z,2.17
2022-08-30T19:04:04.812Z,2.80
2022-08-30T19:06:37.695Z,2.60
2022-08-30T19:09:09.110Z,2.40
2022-08-30T19:11:40.187Z,2.50
2022-08-30T19:14:13.454Z,2.40
2022-08-30T19:16:45.093Z,2.53
2022-08-30T19:19:15.909Z,2.63
2022-08-30T19:21:46.636Z,2.50
2022-08-30T19:24:18.797Z,2.30
2022-08-30T19:26:49.842Z,2.10
2022-08-30T19:29:22.199Z,2.47
2022-08-30T19:31:55.169Z,2.60
2022-08-30T19:34:25.880Z,2.20
2022-08-30T19:36:58.751Z,2.60
2022-08-30T19:39:30.122Z,2.50
2022-08-30T19:42:00.851Z,2.50
2022-08-30T19:44:33.191Z,2.50
2022-08-30T19:47:05.953Z,2.60
2022-08-30T19:49:37.832Z,2.97
2022-08-30T19:52:08.691Z,2.50
2022-08-30T19:54:39.723Z,2.77
2022-08-30T19:57:12.305Z,2.60
2022-08-30T19:59:46.611Z,2.50
2022-08-30T20:02:18.117Z,2.40
2022-08-30T20:04:49.528Z,2.27
2022-08-30T20:07:26.255Z,2.60
2022-08-30T20:09:58.207Z,2.60
2022-08-30T20:12:30.380Z,2.70
2022-08-30T20:15:02.845Z,3.03
2022-08-30T20:17:53.642Z,2.50
2022-08-30T20:20:26.512Z,2.23
2022-08-30T20:22:59.505Z,2.40
2022-08-30T20:25:33.337Z,2.30
2022-08-30T20:28:04.291Z,2.60
2022-08-30T20:30:36.672Z,3.10
2022-08-30T20:33:09.028Z,3.40
2022-08-30T20:35:39.974Z,2.60
2022-08-30T20:38:10.771Z,2.70
2022-08-30T20:40:42.825Z,2.83
2022-08-30T20:43:13.586Z,2.50
2022-08-30T20:45:45.976Z,2.57
2022-08-30T20:48:17.620Z,2.50
2022-08-30T20:50:48.584Z,2.87
2022-08-30T20:53:19.528Z,2.40
2022-08-30T20:55:51.860Z,3.10
2022-08-30T20:58:22.595Z,2.63
2022-08-30T21:00:58.263Z,3.20
2022-08-30T21:03:29.033Z,3.03
2022-08-30T21:06:03.632Z,2.77
2022-08-30T21:08:34.534Z,2.70
2022-08-30T21:11:05.357Z,3.37
2022-08-30T21:13:36.112Z,3.07
2022-08-30T21:16:09.514Z,3.17
2022-08-30T21:18:43.072Z,3.33
2022-08-30T21:21:15.234Z,3.10
2022-08-30T21:23:46.173Z,2.87
2022-08-30T21:26:17.079Z,2.83
2022-08-30T21:28:49.998Z,3.30
2022-08-30T21:31:23.981Z,3.20
2022-08-30T21:33:56.572Z,3.17
2022-08-30T21:36:45.240Z,3.27
2022-08-30T21:39:19.116Z,3.00
2022-08-30T21:41:50.621Z,2.80
2022-08-30T21:44:28.899Z,3.13
2022-08-30T21:47:01.226Z,2.70
2022-08-30T21:49:32.076Z,3.20
2022-08-30T21:52:02.877Z,3.30
2022-08-30T21:54:33.837Z,3.10
2022-08-30T21:57:07.416Z,2.87
2022-08-30T21:59:38.401Z,3.27
2022-08-30T22:02:10.732Z,3.27
2022-08-30T22:04:42.882Z,3.60
2022-08-30T22:07:13.685Z,3.10
2022-08-30T22:09:45.778Z,3.70
2022-08-30T22:12:16.705Z,3.50
2022-08-30T22:14:47.416Z,3.37
2022-08-30T22:17:20.008Z,3.73
2022-08-30T22:19:50.771Z,3.53
2022-08-30T22:22:21.506Z,3.77
2022-08-30T22:24:52.307Z,3.60
2022-08-30T22:27:23.019Z,3.97
2022-08-30T22:29:53.738Z,3.40
2022-08-30T22:32:26.157Z,3.17
2022-08-30T22:34:57.140Z,3.27
2022-08-30T22:37:27.864Z,3.60
2022-08-30T22:39:58.628Z,3.50
2022-08-30T22:42:29.403Z,3.30
2022-08-30T22:45:00.138Z,3.40
2022-08-30T22:47:33.787Z,2.97
2022-08-30T22:50:04.505Z,4.00
2022-08-30T22:52:35.215Z,3.87
2022-08-30T22:55:06.123Z,4.37
2022-08-30T22:57:38.278Z,3.70
2022-08-30T23:00:13.115Z,3.83
2022-08-30T23:02:45.674Z,3.73
2022-08-30T23:05:17.988Z,3.53
2022-08-30T23:07:48.756Z,3.70
2022-08-30T23:10:20.709Z,4.03
2022-08-30T23:12:51.417Z,3.33
2022-08-30T23:15:22.189Z,3.87
2022-08-30T23:17:55.558Z,3.90
2022-08-30T23:20:26.617Z,3.70
2022-08-30T23:23:01.095Z,3.70
2022-08-30T23:25:52.025Z,4.57
2022-08-30T23:28:40.928Z,3.60
2022-08-30T23:31:30.013Z,5.70
2022-08-30T23:34:19.444Z,4.50
2022-08-30T23:37:06.735Z,4.00
2022-08-30T23:39:53.940Z,3.53
2022-08-30T23:42:41.383Z,4.20
2022-08-30T23:45:30.792Z,4.20
2022-08-30T23:48:18.027Z,4.50
2022-08-30T23:51:06.767Z,3.93
2022-08-30T23:53:54.137Z,3.80
2022-08-30T23:56:41.882Z,3.53
2022-08-30T23:59:29.172Z,4.30
